Time;durP1;ratioP1;P1;durP2;ratioP2;P2;SDS_P1;SDS_P2;PMS_P1;PMS_P2;Temp;Humidity;BMP_temperature;BMP_pressure;BME280_temperature;BME280_humidity;BME280_pressure;Samples;Min_cycle;Max_cycle;Signal;HPM_P1;HPM_P2
2022/07/28 00:01:34;;;;;;;2.15;0.90;;;;;;;;;;4863565;23;20056;-63
2022/07/28 00:04:12;;;;;;;4.13;0.90;;;;;;;;;;4888110;29;20148;-63
2022/07/28 00:06:55;;;;;;;1.77;0.77;;;;;;;;;;4880233;23;20105;-64
2022/07/28 00:09:23;;;;;;;;;;;;;;;;;;4856180;29;20061;-63
2022/07/28 00:11:53;;;;;;;3.35;0.90;;;;;;;;;;4860201;29;19928;-64
2022/07/28 00:14:21;;;;;;;4.03;0.95;;;;;;;;;;4865108;29;20052;-64
2022/07/28 00:16:47;;;;;;;1.48;0.70;;;;;;;;;;4861367;29;20484;-63
2022/07/28 00:19:14;;;;;;;1.45;0.75;;;;;;;;;;4864687;29;20077;-63
2022/07/28 00:21:40;;;;;;;1.85;0.80;;;;;;;;;;4856435;29;20089;-63
2022/07/28 00:24:07;;;;;;;2.08;0.82;;;;;;;;;;4864456;29;20065;-64
2022/07/28 00:26:36;;;;;;;1.02;0.60;;;;;;;;;;4860572;29;20053;-63
2022/07/28 00:29:05;;;;;;;3.72;1.00;;;;;;;;;;4868625;29;20067;-63
2022/07/28 00:31:31;;;;;;;3.45;0.80;;;;;;;;;;4860042;29;20061;-63
2022/07/28 00:33:58;;;;;;;3.60;0.88;;;;;;;;;;4865818;29;20136;-64
2022/07/28 00:36:24;;;;;;;1.95;0.85;;;;;;;;;;4869821;29;20056;-63
2022/07/28 00:38:51;;;;;;;3.70;0.80;;;;;;;;;;4859708;29;20142;-63
2022/07/28 00:41:19;;;;;;;2.13;0.70;;;;;;;;;;4868634;29;20068;-63
2022/07/28 00:43:46;;;;;;;1.83;0.73;;;;;;;;;;4857076;29;20072;-63
2022/07/28 00:46:15;;;;;;;4.93;1.25;;;;;;;;;;4862619;29;20064;-63
2022/07/28 00:48:45;;;;;;;1.92;0.70;;;;;;;;;;4857286;29;20052;-63
2022/07/28 00:51:12;;;;;;;2.22;0.95;;;;;;;;;;4857846;29;20117;-62
2022/07/28 00:53:39;;;;;;;5.75;0.90;;;;;;;;;;4861509;29;20061;-63
2022/07/28 00:56:06;;;;;;;3.70;0.75;;;;;;;;;;4864409;29;20068;-63
2022/07/28 00:58:34;;;;;;;1.85;0.77;;;;;;;;;;4867285;29;20061;-64
2022/07/28 01:03:40;;;;;;;3.55;1.00;;;;;;;;;;4877646;23;20073;-64
2022/07/28 01:06:15;;;;;;;3.03;0.93;;;;;;;;;;4872039;29;20052;-64
2022/07/28 01:08:49;;;;;;;4.90;0.93;;;;;;;;;;4872238;29;20144;-63
2022/07/28 01:11:21;;;;;;;0.93;0.70;;;;;;;;;;4886293;29;20060;-63
2022/07/28 01:13:50;;;;;;;2.65;0.82;;;;;;;;;;4869536;29;20108;-63
2022/07/28 01:16:17;;;;;;;1.15;0.68;;;;;;;;;;4866485;29;20088;-63
2022/07/28 01:18:47;;;;;;;1.85;0.77;;;;;;;;;;4874602;29;20065;-63
2022/07/28 01:21:15;;;;;;;1.05;0.60;;;;;;;;;;4869683;29;20092;-64
2022/07/28 01:23:58;;;;;;;1.88;0.80;;;;;;;;;;4870448;29;20064;-63
2022/07/28 01:26:40;;;;;;;1.73;0.80;;;;;;;;;;4868143;29;20056;-63
2022/07/28 01:29:13;;;;;;;1.95;0.90;;;;;;;;;;4864613;29;20104;-64
2022/07/28 01:31:43;;;;;;;1.25;0.75;;;;;;;;;;4872343;29;20053;-63
2022/07/28 01:34:12;;;;;;;3.22;0.80;;;;;;;;;;4887209;29;20064;-63
2022/07/28 01:36:42;;;;;;;2.30;0.68;;;;;;;;;;4870789;29;20063;-63
2022/07/28 01:39:09;;;;;;;1.60;0.80;;;;;;;;;;4866227;29;20105;-63
2022/07/28 01:41:36;;;;;;;2.20;0.90;;;;;;;;;;4877086;29;20060;-64
2022/07/28 01:44:05;;;;;;;1.27;0.77;;;;;;;;;;4870796;29;20057;-63
2022/07/28 01:46:33;;;;;;;2.88;0.80;;;;;;;;;;4869793;29;20057;-63
2022/07/28 01:49:01;;;;;;;2.03;0.68;;;;;;;;;;4874499;29;20048;-63
2022/07/28 01:51:28;;;;;;;;;;;;;;;;;;4890139;29;20075;-63
2022/07/28 01:53:56;;;;;;;1.95;0.60;;;;;;;;;;4872713;29;19927;-63
2022/07/28 01:56:24;;;;;;;2.70;0.90;;;;;;;;;;4864029;29;20052;-62
2022/07/28 01:58:51;;;;;;;1.63;0.68;;;;;;;;;;4873920;29;20051;-63
2022/07/28 02:01:19;;;;;;;1.25;0.60;;;;;;;;;;4869125;29;20052;-63
2022/07/28 02:03:46;;;;;;;2.58;0.80;;;;;;;;;;4876834;29;20072;-64
2022/07/28 02:06:15;;;;;;;1.02;0.70;;;;;;;;;;4873054;29;20064;-63
2022/07/28 02:08:42;;;;;;;1.08;0.63;;;;;;;;;;4877154;29;20045;-63
2022/07/28 02:13:53;;;;;;;1.55;0.60;;;;;;;;;;4872082;29;20196;-63
2022/07/28 02:16:21;;;;;;;3.58;0.90;;;;;;;;;;4877490;29;20128;-63
2022/07/28 02:18:49;;;;;;;0.75;0.50;;;;;;;;;;4885732;29;20064;-64
2022/07/28 02:21:18;;;;;;;1.42;0.80;;;;;;;;;;4884093;29;20087;-63
2022/07/28 02:23:47;;;;;;;1.13;0.70;;;;;;;;;;4873251;29;20070;-63
2022/07/28 02:26:15;;;;;;;2.45;0.90;;;;;;;;;;4878614;29;20136;-64
2022/07/28 02:28:43;;;;;;;2.10;0.77;;;;;;;;;;4872640;29;20067;-63
2022/07/28 02:31:13;;;;;;;1.67;0.80;;;;;;;;;;4878059;29;20080;-63
2022/07/28 02:33:44;;;;;;;3.25;0.70;;;;;;;;;;4873818;29;20316;-63
2022/07/28 02:36:13;;;;;;;2.53;0.57;;;;;;;;;;4884514;29;20056;-63
2022/07/28 02:38:44;;;;;;;1.52;0.60;;;;;;;;;;4888635;29;20193;-63
2022/07/28 02:41:15;;;;;;;1.15;0.68;;;;;;;;;;4877832;29;20048;-63
2022/07/28 02:43:44;;;;;;;2.40;0.80;;;;;;;;;;4872770;29;20059;-63
2022/07/28 02:46:13;;;;;;;3.22;0.90;;;;;;;;;;4893258;29;20087;-63
2022/07/28 02:48:41;;;;;;;1.65;0.60;;;;;;;;;;4893073;29;20056;-64
2022/07/28 02:51:08;;;;;;;2.20;0.93;;;;;;;;;;4874929;29;20053;-62
2022/07/28 02:53:35;;;;;;;2.67;0.70;;;;;;;;;;4877647;29;20074;-62
2022/07/28 02:56:03;;;;;;;3.85;0.88;;;;;;;;;;4871852;29;20060;-63
2022/07/28 02:58:30;;;;;;;1.08;0.60;;;;;;;;;;4877429;29;20056;-63
2022/07/28 03:00:56;;;;;;;1.58;0.73;;;;;;;;;;4872090;29;20053;-63
2022/07/28 03:03:24;;;;;;;2.13;0.80;;;;;;;;;;4873965;29;20076;-63
2022/07/28 03:05:51;;;;;;;2.05;0.73;;;;;;;;;;4861123;29;20056;-63
2022/07/28 03:08:18;;;;;;;2.55;0.73;;;;;;;;;;4877138;29;20057;-63
2022/07/28 03:10:45;;;;;;;3.25;0.90;;;;;;;;;;4871441;29;20159;-63
2022/07/28 03:13:13;;;;;;;1.52;0.90;;;;;;;;;;4876633;29;20527;-62
2022/07/28 03:15:41;;;;;;;3.00;0.70;;;;;;;;;;4868843;29;20087;-63
2022/07/28 03:18:08;;;;;;;5.03;0.75;;;;;;;;;;4874838;29;20053;-62
2022/07/28 03:20:35;;;;;;;4.20;0.90;;;;;;;;;;4880543;29;20052;-62
2022/07/28 03:23:03;;;;;;;3.40;0.70;;;;;;;;;;4867985;29;20062;-63
2022/07/28 03:25:32;;;;;;;4.53;0.90;;;;;;;;;;4892898;29;20060;-63
2022/07/28 03:28:01;;;;;;;4.55;1.13;;;;;;;;;;4859196;29;20060;-62
2022/07/28 03:30:32;;;;;;;2.17;0.82;;;;;;;;;;4892132;29;20067;-63
2022/07/28 03:33:00;;;;;;;5.13;1.10;;;;;;;;;;4867026;29;20077;-62
2022/07/28 03:35:27;;;;;;;4.47;1.00;;;;;;;;;;4891823;29;20056;-63
2022/07/28 03:37:54;;;;;;;1.70;0.73;;;;;;;;;;4871540;29;20060;-63
2022/07/28 03:40:24;;;;;;;1.17;0.80;;;;;;;;;;4888710;29;20144;-63
2022/07/28 03:42:51;;;;;;;1.08;0.70;;;;;;;;;;4874591;29;20143;-63
2022/07/28 03:45:19;;;;;;;1.27;0.50;;;;;;;;;;4867687;29;20056;-63
2022/07/28 03:47:50;;;;;;;1.83;0.77;;;;;;;;;;4874371;29;20059;-63
2022/07/28 03:50:17;;;;;;;1.50;0.80;;;;;;;;;;4860573;29;20056;-63
2022/07/28 03:52:44;;;;;;;4.85;0.95;;;;;;;;;;4857115;29;20060;-63
2022/07/28 03:55:11;;;;;;;2.25;0.68;;;;;;;;;;4852949;29;20053;-63
2022/07/28 03:57:38;;;;;;;1.55;0.70;;;;;;;;;;4857797;29;20057;-63
2022/07/28 04:00:05;;;;;;;4.53;0.90;;;;;;;;;;4840915;29;20056;-63
2022/07/28 04:02:33;;;;;;;1.55;0.95;;;;;;;;;;4815516;29;1159462;-63
2022/07/28 04:05:01;;;;;;;0.90;0.60;;;;;;;;;;4865273;29;20064;-63
2022/07/28 04:07:28;;;;;;;4.00;1.00;;;;;;;;;;4869455;29;20064;-63
2022/07/28 04:09:55;;;;;;;2.17;1.15;;;;;;;;;;4890814;29;20065;-62
2022/07/28 04:12:22;;;;;;;1.02;0.80;;;;;;;;;;4844728;29;20080;-62
2022/07/28 04:14:48;;;;;;;5.20;0.85;;;;;;;;;;4857068;29;20060;-63
2022/07/28 04:17:15;;;;;;;1.33;0.80;;;;;;;;;;4853886;29;20061;-63
2022/07/28 04:19:41;;;;;;;0.65;0.60;;;;;;;;;;4858106;29;20057;-62
2022/07/28 04:22:09;;;;;;;2.40;0.70;;;;;;;;;;4863529;29;20495;-63
2022/07/28 04:24:39;;;;;;;2.33;0.98;;;;;;;;;;4872799;29;20071;-63
2022/07/28 04:27:07;;;;;;;0.85;0.50;;;;;;;;;;4892051;29;20056;-64
2022/07/28 04:29:33;;;;;;;2.78;0.98;;;;;;;;;;4867666;29;20076;-63
2022/07/28 04:32:00;;;;;;;1.50;0.75;;;;;;;;;;4892123;29;20056;-63
2022/07/28 04:34:26;;;;;;;0.60;0.52;;;;;;;;;;4868281;29;20061;-65
2022/07/28 04:36:55;;;;;;;2.28;0.63;;;;;;;;;;4892580;29;20064;-64
2022/07/28 04:39:23;;;;;;;2.10;1.00;;;;;;;;;;4870943;29;20068;-64
2022/07/28 04:41:51;;;;;;;3.08;0.90;;;;;;;;;;4861873;29;20514;-64
2022/07/28 04:44:18;;;;;;;1.67;0.68;;;;;;;;;;4877432;29;20139;-62
2022/07/28 04:46:45;;;;;;;1.88;0.75;;;;;;;;;;4868630;29;20064;-63
2022/07/28 04:49:12;;;;;;;6.18;1.00;;;;;;;;;;4874074;29;20068;-63
2022/07/28 04:51:44;;;;;;;1.13;0.75;;;;;;;;;;4870134;29;20076;-63
2022/07/28 04:54:10;;;;;;;4.82;0.80;;;;;;;;;;4875762;29;20127;-63
2022/07/28 04:56:38;;;;;;;1.95;0.80;;;;;;;;;;4865091;29;20119;-62
2022/07/28 04:59:05;;;;;;;4.22;0.80;;;;;;;;;;4872009;29;20057;-63
2022/07/28 05:01:31;;;;;;;2.45;0.90;;;;;;;;;;4869250;29;20231;-63
2022/07/28 05:03:58;;;;;;;1.98;0.98;;;;;;;;;;4875673;29;20079;-63
2022/07/28 05:06:24;;;;;;;6.13;0.80;;;;;;;;;;4869754;29;20073;-63
2022/07/28 05:08:51;;;;;;;1.40;0.75;;;;;;;;;;4866169;29;20053;-63
2022/07/28 05:11:18;;;;;;;1.50;0.60;;;;;;;;;;4871310;29;20077;-63
2022/07/28 05:13:46;;;;;;;0.80;0.50;;;;;;;;;;4853687;29;20071;-63
2022/07/28 05:16:13;;;;;;;1.30;0.70;;;;;;;;;;4868306;29;20113;-63
2022/07/28 05:18:39;;;;;;;1.10;0.70;;;;;;;;;;4867129;29;20067;-64
2022/07/28 05:21:06;;;;;;;1.33;0.63;;;;;;;;;;4873050;29;20075;-64
2022/07/28 05:23:33;;;;;;;1.48;0.75;;;;;;;;;;4881226;29;20063;-63
2022/07/28 05:25:59;;;;;;;1.95;0.60;;;;;;;;;;4867903;29;20069;-62
2022/07/28 05:28:29;;;;;;;3.30;0.70;;;;;;;;;;4873973;29;20091;-63
2022/07/28 05:30:57;;;;;;;1.48;0.70;;;;;;;;;;4867957;29;20072;-63
2022/07/28 05:33:24;;;;;;;1.30;0.68;;;;;;;;;;4873255;29;20127;-63
2022/07/28 05:35:53;;;;;;;2.92;0.90;;;;;;;;;;4868056;29;20515;-64
2022/07/28 05:38:20;;;;;;;1.05;0.63;;;;;;;;;;4875183;29;20056;-63
2022/07/28 05:40:47;;;;;;;2.00;0.75;;;;;;;;;;4864553;29;20056;-64
2022/07/28 05:43:13;;;;;;;2.63;0.80;;;;;;;;;;4867667;29;20049;-63
2022/07/28 05:45:41;;;;;;;2.00;0.70;;;;;;;;;;4865351;29;20159;-64
2022/07/28 05:48:09;;;;;;;1.98;0.90;;;;;;;;;;4869515;29;20060;-64
2022/07/28 05:50:36;;;;;;;2.55;0.65;;;;;;;;;;4863060;29;20117;-63
2022/07/28 05:53:03;;;;;;;2.70;1.00;;;;;;;;;;4871520;29;20057;-63
2022/07/28 05:55:29;;;;;;;2.58;0.80;;;;;;;;;;4872015;29;20105;-63
2022/07/28 05:57:57;;;;;;;0.75;0.60;;;;;;;;;;4878914;29;20057;-63
2022/07/28 06:00:24;;;;;;;0.82;0.60;;;;;;;;;;4872815;29;20063;-63
2022/07/28 06:02:50;;;;;;;2.22;0.95;;;;;;;;;;4893691;29;20057;-63
2022/07/28 06:05:19;;;;;;;1.42;0.70;;;;;;;;;;4874848;29;20127;-63
2022/07/28 06:07:46;;;;;;;;;;;;;;;;;;4879089;29;20052;-65
2022/07/28 06:10:14;;;;;;;5.20;0.88;;;;;;;;;;4879415;29;20014;-63
2022/07/28 06:12:41;;;;;;;3.33;0.70;;;;;;;;;;4859699;29;20057;-63
2022/07/28 06:15:08;;;;;;;2.63;0.75;;;;;;;;;;4858436;29;20369;-63
2022/07/28 06:17:36;;;;;;;1.70;0.75;;;;;;;;;;4867149;29;20060;-63
2022/07/28 06:20:02;;;;;;;3.05;0.95;;;;;;;;;;4878152;29;20049;-63
2022/07/28 06:22:40;;;;;;;0.95;0.60;;;;;;;;;;4884764;29;20053;-63
2022/07/28 06:25:06;;;;;;;2.33;0.90;;;;;;;;;;4860247;29;20088;-63
2022/07/28 06:27:37;;;;;;;2.25;0.88;;;;;;;;;;4858183;29;20576;-63
2022/07/28 06:30:04;;;;;;;2.22;0.88;;;;;;;;;;4858556;29;20064;-64
2022/07/28 06:32:31;;;;;;;2.15;0.73;;;;;;;;;;4861481;29;20121;-63
2022/07/28 06:34:57;;;;;;;2.17;0.63;;;;;;;;;;4859274;29;20064;-63
2022/07/28 06:37:32;;;;;;;4.05;0.77;;;;;;;;;;4860073;29;20045;-62
2022/07/28 06:39:59;;;;;;;1.20;0.57;;;;;;;;;;4860770;29;20063;-64
2022/07/28 06:42:26;;;;;;;1.05;0.65;;;;;;;;;;4878338;29;20144;-64
2022/07/28 06:44:53;;;;;;;1.55;0.73;;;;;;;;;;4875932;29;20068;-64
2022/07/28 06:47:20;;;;;;;2.65;0.60;;;;;;;;;;4859060;29;20059;-63
2022/07/28 06:49:46;;;;;;;4.13;0.75;;;;;;;;;;4864595;29;20115;-64
2022/07/28 06:52:13;;;;;;;2.67;0.68;;;;;;;;;;4867269;29;20068;-64
2022/07/28 06:54:44;;;;;;;2.05;0.77;;;;;;;;;;4877678;29;20057;-64
2022/07/28 06:57:12;;;;;;;3.40;0.80;;;;;;;;;;4861208;29;20068;-64
2022/07/28 06:59:39;;;;;;;3.03;0.70;;;;;;;;;;4858618;29;20135;-64
2022/07/28 07:02:06;;;;;;;2.38;0.90;;;;;;;;;;4850383;29;20069;-63
2022/07/28 07:04:33;;;;;;;2.03;0.63;;;;;;;;;;4855743;29;20069;-63
2022/07/28 07:07:00;;;;;;;2.13;0.55;;;;;;;;;;4852003;29;20076;-63
2022/07/28 07:09:26;;;;;;;2.53;0.77;;;;;;;;;;4855303;29;20065;-63
2022/07/28 07:11:54;;;;;;;2.13;0.70;;;;;;;;;;4872616;29;20567;-64
2022/07/28 07:14:21;;;;;;;1.20;0.60;;;;;;;;;;4852771;29;20103;-63
2022/07/28 07:16:48;;;;;;;4.55;0.65;;;;;;;;;;4855525;29;20067;-63
2022/07/28 07:19:14;;;;;;;2.90;0.90;;;;;;;;;;4845957;29;20131;-63
2022/07/28 07:21:41;;;;;;;1.48;0.65;;;;;;;;;;4869267;29;20053;-64
2022/07/28 07:24:10;;;;;;;1.60;0.70;;;;;;;;;;4868619;29;20152;-63
2022/07/28 07:26:42;;;;;;;3.08;0.73;;;;;;;;;;4874361;29;20136;-63
2022/07/28 07:29:10;;;;;;;4.25;0.70;;;;;;;;;;4868803;29;20851;-64
2022/07/28 07:31:37;;;;;;;1.83;0.70;;;;;;;;;;4875091;29;20053;-63
2022/07/28 07:34:05;;;;;;;0.98;0.60;;;;;;;;;;4883899;29;20057;-64
2022/07/28 07:36:32;;;;;;;1.90;0.65;;;;;;;;;;4874230;29;20045;-64
2022/07/28 07:38:58;;;;;;;4.13;0.65;;;;;;;;;;4873360;29;20160;-63
2022/07/28 07:41:25;;;;;;;2.20;0.70;;;;;;;;;;4866200;29;20139;-63
2022/07/28 07:43:52;;;;;;;1.13;0.70;;;;;;;;;;4866116;29;20061;-64
2022/07/28 07:46:21;;;;;;;3.45;0.90;;;;;;;;;;4867349;29;20060;-64
2022/07/28 07:48:48;;;;;;;3.13;0.60;;;;;;;;;;4874143;29;20090;-64
2022/07/28 07:51:15;;;;;;;2.50;0.75;;;;;;;;;;4868380;29;20120;-65
2022/07/28 07:53:42;;;;;;;0.80;0.50;;;;;;;;;;4873190;29;20052;-64
2022/07/28 07:56:09;;;;;;;0.70;0.50;;;;;;;;;;4866954;29;20049;-65
2022/07/28 07:58:36;;;;;;;1.67;0.70;;;;;;;;;;4872448;29;20064;-64
2022/07/28 08:01:03;;;;;;;3.40;0.70;;;;;;;;;;4868742;29;20059;-64
2022/07/28 08:03:31;;;;;;;1.67;0.50;;;;;;;;;;4873929;29;20053;-64
2022/07/28 08:05:57;;;;;;;1.15;0.60;;;;;;;;;;4868750;29;20053;-64
2022/07/28 08:08:24;;;;;;;2.58;0.55;;;;;;;;;;4874411;29;20064;-64
2022/07/28 08:10:51;;;;;;;3.15;0.80;;;;;;;;;;4868029;29;20051;-64
2022/07/28 08:13:21;;;;;;;0.82;0.50;;;;;;;;;;4876154;29;20064;-64
2022/07/28 08:15:48;;;;;;;2.20;0.70;;;;;;;;;;4872491;29;20045;-64
2022/07/28 08:18:15;;;;;;;3.08;0.60;;;;;;;;;;4877677;29;20064;-64
2022/07/28 08:20:43;;;;;;;1.95;0.70;;;;;;;;;;4878150;29;20060;-64
2022/07/28 08:23:09;;;;;;;2.97;0.60;;;;;;;;;;4875516;29;20047;-64
2022/07/28 08:25:37;;;;;;;1.08;0.65;;;;;;;;;;4867049;29;20064;-64
2022/07/28 08:28:06;;;;;;;2.22;0.70;;;;;;;;;;4869912;29;20060;-64
2022/07/28 08:30:33;;;;;;;2.10;0.77;;;;;;;;;;4878381;29;20077;-63
2022/07/28 08:33:01;;;;;;;1.17;0.68;;;;;;;;;;4871985;29;20067;-65
2022/07/28 08:35:27;;;;;;;0.98;0.47;;;;;;;;;;4877792;29;20053;-66
2022/07/28 08:37:55;;;;;;;2.08;0.70;;;;;;;;;;4871692;29;20049;-64
2022/07/28 08:40:22;;;;;;;2.38;0.60;;;;;;;;;;4877028;29;20059;-64
2022/07/28 08:42:50;;;;;;;9.80;0.77;;;;;;;;;;4871989;29;20049;-65
2022/07/28 08:45:17;;;;;;;1.95;0.63;;;;;;;;;;4877097;29;20133;-63
2022/07/28 08:47:44;;;;;;;1.58;0.55;;;;;;;;;;4886973;29;20088;-63
2022/07/28 08:50:12;;;;;;;2.83;0.70;;;;;;;;;;4877390;29;20068;-63
2022/07/28 08:52:41;;;;;;;3.50;0.65;;;;;;;;;;4871392;29;20155;-68
2022/07/28 08:55:09;;;;;;;1.65;0.80;;;;;;;;;;4874873;29;20067;-65
2022/07/28 08:57:40;;;;;;;3.55;0.60;;;;;;;;;;4869370;29;20064;-65
2022/07/28 09:00:07;;;;;;;7.10;0.65;;;;;;;;;;4875608;29;20292;-62
2022/07/28 09:02:36;;;;;;;0.68;0.50;;;;;;;;;;4869181;29;20055;-65
2022/07/28 09:05:02;;;;;;;;;;;;;;;;;;4877588;29;20060;-64
2022/07/28 09:07:29;;;;;;;3.20;0.70;;;;;;;;;;4892893;29;19931;-66
2022/07/28 09:09:55;;;;;;;0.85;0.52;;;;;;;;;;4871320;29;20045;-67
2022/07/28 09:12:23;;;;;;;1.13;0.57;;;;;;;;;;4877233;29;20057;-65
2022/07/28 09:14:50;;;;;;;1.48;0.70;;;;;;;;;;4871423;29;20053;-63
2022/07/28 09:17:17;;;;;;;1.63;0.63;;;;;;;;;;4891457;29;20053;-66
2022/07/28 09:19:44;;;;;;;2.38;0.70;;;;;;;;;;4866907;29;20045;-67
2022/07/28 09:22:10;;;;;;;1.00;0.60;;;;;;;;;;4892575;29;20057;-65
2022/07/28 09:24:39;;;;;;;1.40;0.60;;;;;;;;;;4878341;29;20061;-65
2022/07/28 09:27:07;;;;;;;2.22;0.68;;;;;;;;;;4876545;29;20064;-68
2022/07/28 09:29:35;;;;;;;2.47;0.70;;;;;;;;;;4871760;29;20114;-65
2022/07/28 09:32:02;;;;;;;3.42;0.73;;;;;;;;;;4876770;29;20067;-63
2022/07/28 09:34:38;;;;;;;2.20;0.57;;;;;;;;;;4871618;29;20061;-65
2022/07/28 09:37:05;;;;;;;2.97;0.80;;;;;;;;;;4876646;29;20064;-66
2022/07/28 09:39:32;;;;;;;2.25;0.60;;;;;;;;;;4870988;29;20061;-66
2022/07/28 09:41:59;;;;;;;2.58;0.70;;;;;;;;;;4876019;29;20049;-65
2022/07/28 09:44:26;;;;;;;1.63;0.70;;;;;;;;;;4872172;29;20053;-62
2022/07/28 09:46:56;;;;;;;2.78;0.65;;;;;;;;;;4877277;29;20076;-63
2022/07/28 09:49:23;;;;;;;1.67;0.60;;;;;;;;;;4871709;29;20053;-64
2022/07/28 09:51:59;;;;;;;1.00;0.52;;;;;;;;;;4876520;29;20057;-67
2022/07/28 09:54:26;;;;;;;3.00;0.90;;;;;;;;;;4872527;29;20049;-65
2022/07/28 09:56:52;;;;;;;2.83;0.93;;;;;;;;;;4875433;29;20108;-66
2022/07/28 09:59:20;;;;;;;4.22;0.60;;;;;;;;;;4875487;29;20067;-65
2022/07/28 10:01:51;;;;;;;2.25;0.60;;;;;;;;;;4872789;29;20057;-66
2022/07/28 10:04:30;;;;;;;2.65;0.77;;;;;;;;;;4868241;29;20069;-61
2022/07/28 10:07:01;;;;;;;1.77;0.60;;;;;;;;;;4871578;29;20116;-63
2022/07/28 10:09:28;;;;;;;1.60;0.60;;;;;;;;;;4875720;29;20048;-68
2022/07/28 10:11:56;;;;;;;0.70;0.60;;;;;;;;;;4845258;29;20057;-67
2022/07/28 10:14:31;;;;;;;1.10;0.70;;;;;;;;;;4841051;29;20060;-63
2022/07/28 10:16:59;;;;;;;0.82;0.60;;;;;;;;;;4844931;29;20061;-67
2022/07/28 10:19:26;;;;;;;3.70;0.80;;;;;;;;;;4860508;29;20048;-66
2022/07/28 10:21:54;;;;;;;1.17;0.63;;;;;;;;;;4851113;29;20165;-70
2022/07/28 10:24:22;;;;;;;1.38;0.70;;;;;;;;;;4860255;29;20053;-64
2022/07/28 10:26:51;;;;;;;1.75;0.80;;;;;;;;;;4857607;29;20064;-68
2022/07/28 10:29:17;;;;;;;;;;;;;;;;;;4853776;29;20061;-66
2022/07/28 10:31:48;;;;;;;2.42;0.68;;;;;;;;;;4859813;29;19928;-67
2022/07/28 10:34:20;;;;;;;2.30;0.70;;;;;;;;;;4852812;29;20057;-65
2022/07/28 10:36:47;;;;;;;2.33;0.90;;;;;;;;;;4859031;29;20063;-66
2022/07/28 10:39:18;;;;;;;1.38;0.80;;;;;;;;;;4846300;29;20061;-70
2022/07/28 10:41:45;;;;;;;1.80;0.60;;;;;;;;;;4840825;29;20054;-62
2022/07/28 10:44:13;;;;;;;3.00;1.10;;;;;;;;;;4838476;29;20060;-64
2022/07/28 10:46:44;;;;;;;2.63;1.20;;;;;;;;;;4841211;29;20061;-62
2022/07/28 10:49:11;;;;;;;2.13;0.80;;;;;;;;;;4841792;29;20129;-71
2022/07/28 10:51:39;;;;;;;1.10;0.73;;;;;;;;;;4852359;29;20049;-69
2022/07/28 10:54:08;;;;;;;3.55;0.80;;;;;;;;;;4859692;29;20080;-69
2022/07/28 10:56:43;;;;;;;4.20;0.75;;;;;;;;;;4843414;29;20062;-61
2022/07/28 10:59:15;;;;;;;1.30;0.80;;;;;;;;;;4840752;29;20068;-65
2022/07/28 11:01:43;;;;;;;0.60;0.60;;;;;;;;;;4838886;29;20053;-69
2022/07/28 11:04:30;;;;;;;2.08;0.65;;;;;;;;;;4859361;29;20140;-66
2022/07/28 11:07:10;;;;;;;3.70;0.70;;;;;;;;;;4853115;29;20057;-62
2022/07/28 11:09:37;;;;;;;1.25;0.60;;;;;;;;;;4859005;29;20061;-74
2022/07/28 11:12:03;;;;;;;2.50;0.80;;;;;;;;;;4854506;29;20067;-65
2022/07/28 11:14:32;;;;;;;2.40;0.63;;;;;;;;;;4856551;29;20057;-72
2022/07/28 11:17:12;;;;;;;2.40;0.57;;;;;;;;;;4859157;29;20053;-66
2022/07/28 11:19:52;;;;;;;1.52;0.60;;;;;;;;;;4850449;29;20133;-69
2022/07/28 11:22:27;;;;;;;6.18;2.97;;;;;;;;;;4860256;29;20185;-62
2022/07/28 11:25:12;;;;;;;4.10;1.30;;;;;;;;;;4853622;29;20073;-73
2022/07/28 11:27:58;;;;;;;3.15;1.20;;;;;;;;;;4859291;29;20067;-69
2022/07/28 11:30:43;;;;;;;2.65;1.23;;;;;;;;;;4853839;29;20049;-73
2022/07/28 11:33:10;;;;;;;3.08;0.90;;;;;;;;;;4873735;29;20041;-69
2022/07/28 11:35:55;;;;;;;3.33;1.05;;;;;;;;;;4853960;29;20060;-71
2022/07/28 11:38:23;;;;;;;2.60;1.00;;;;;;;;;;4859159;29;20049;-71
2022/07/28 11:40:50;;;;;;;5.45;1.83;;;;;;;;;;4852986;29;20053;-68
2022/07/28 11:43:30;;;;;;;14.57;7.32;;;;;;;;;;4858550;29;20060;-64
2022/07/28 11:46:30;;;;;;;13.90;5.93;;;;;;;;;;4854207;29;20057;-67
2022/07/28 11:49:15;;;;;;;6.47;2.60;;;;;;;;;;4854432;29;20049;-68
2022/07/28 11:51:43;;;;;;;3.35;1.10;;;;;;;;;;4854829;29;20117;-68
2022/07/28 11:54:17;;;;;;;2.08;1.10;;;;;;;;;;4837232;29;20067;-70
2022/07/28 11:56:44;;;;;;;4.28;1.05;;;;;;;;;;4831172;29;20140;-76
2022/07/28 11:59:12;;;;;;;10.43;1.27;;;;;;;;;;4840456;29;20124;-65
2022/07/28 12:01:51;;;;;;;2.55;0.68;;;;;;;;;;4852237;29;20064;-63
2022/07/28 12:04:18;;;;;;;1.08;0.50;;;;;;;;;;4876061;29;20120;-66
2022/07/28 12:06:46;;;;;;;7.80;0.90;;;;;;;;;;4870976;29;20093;-66
2022/07/28 12:09:13;;;;;;;7.75;1.50;;;;;;;;;;4891768;29;20083;-66
2022/07/28 12:11:44;;;;;;;2.13;0.70;;;;;;;;;;4886797;29;20060;-65
2022/07/28 12:14:12;;;;;;;3.50;0.70;;;;;;;;;;4875040;29;20060;-64
2022/07/28 12:16:41;;;;;;;0.85;0.63;;;;;;;;;;4870901;29;20058;-66
2022/07/28 12:19:09;;;;;;;1.15;0.70;;;;;;;;;;4876184;29;20052;-65
2022/07/28 12:21:36;;;;;;;4.90;0.57;;;;;;;;;;4870155;29;20057;-62
2022/07/28 12:24:02;;;;;;;3.42;0.70;;;;;;;;;;4876314;29;20147;-68
2022/07/28 12:26:30;;;;;;;1.83;0.95;;;;;;;;;;4870882;29;20072;-65
2022/07/28 12:28:58;;;;;;;5.25;2.58;;;;;;;;;;4874475;29;20057;-63
2022/07/28 12:31:28;;;;;;;6.55;2.67;;;;;;;;;;4870917;29;20049;-64
2022/07/28 12:33:55;;;;;;;5.25;2.08;;;;;;;;;;4876818;29;20060;-63
2022/07/28 12:36:23;;;;;;;2.05;1.10;;;;;;;;;;4870251;29;20112;-63
2022/07/28 12:38:51;;;;;;;4.85;2.28;;;;;;;;;;4876554;29;20159;-63
2022/07/28 12:41:18;;;;;;;5.40;2.25;;;;;;;;;;4869979;29;20056;-64
2022/07/28 12:43:52;;;;;;;1.30;0.85;;;;;;;;;;4876931;29;20060;-63
2022/07/28 12:46:25;;;;;;;7.00;1.65;;;;;;;;;;4871242;29;20057;-64
2022/07/28 12:48:52;;;;;;;4.50;1.80;;;;;;;;;;4876875;29;20064;-63
2022/07/28 12:51:40;;;;;;;5.28;0.98;;;;;;;;;;4876238;29;20060;-63
2022/07/28 12:54:08;;;;;;;3.22;1.70;;;;;;;;;;4852070;29;20089;-62
2022/07/28 12:56:44;;;;;;;4.07;1.80;;;;;;;;;;4851257;29;20041;-62
2022/07/28 12:59:12;;;;;;;5.03;1.60;;;;;;;;;;4876850;29;20060;-63
2022/07/28 13:01:47;;;;;;;3.63;1.20;;;;;;;;;;4880468;29;20072;-62
2022/07/28 13:04:14;;;;;;;5.18;1.17;;;;;;;;;;4875564;29;20060;-63
2022/07/28 13:06:43;;;;;;;4.05;1.30;;;;;;;;;;4877465;29;20060;-63
2022/07/28 13:09:21;;;;;;;4.03;1.45;;;;;;;;;;4870598;29;20107;-63
2022/07/28 13:11:49;;;;;;;2.95;1.17;;;;;;;;;;4880234;29;20057;-64
2022/07/28 13:14:15;;;;;;;4.15;1.25;;;;;;;;;;4871969;29;20059;-69
2022/07/28 13:16:43;;;;;;;2.85;0.90;;;;;;;;;;4894791;29;20056;-65
2022/07/28 13:19:20;;;;;;;3.55;0.80;;;;;;;;;;4865873;29;20064;-65
2022/07/28 13:21:56;;;;;;;2.80;0.80;;;;;;;;;;4878285;29;20052;-65
2022/07/28 13:24:23;;;;;;;3.05;0.75;;;;;;;;;;4862414;29;20101;-66
2022/07/28 13:26:51;;;;;;;4.70;0.98;;;;;;;;;;4860737;29;20053;-66
2022/07/28 13:29:18;;;;;;;3.70;1.02;;;;;;;;;;4867082;29;20148;-66
2022/07/28 13:31:44;;;;;;;3.37;0.90;;;;;;;;;;4870259;29;20056;-67
2022/07/28 13:34:15;;;;;;;1.45;0.82;;;;;;;;;;4878959;29;20057;-67
2022/07/28 13:36:45;;;;;;;3.28;0.88;;;;;;;;;;4862666;29;20055;-66
2022/07/28 13:39:12;;;;;;;2.80;1.00;;;;;;;;;;4880358;29;20067;-67
2022/07/28 13:41:43;;;;;;;1.60;0.80;;;;;;;;;;4880240;29;20124;-67
2022/07/28 13:44:13;;;;;;;1.10;0.70;;;;;;;;;;4895202;29;20061;-67
2022/07/28 13:46:40;;;;;;;2.65;0.82;;;;;;;;;;4873803;29;20079;-67
2022/07/28 13:49:07;;;;;;;2.40;1.02;;;;;;;;;;4860259;29;20117;-67
2022/07/28 13:51:35;;;;;;;0.65;0.57;;;;;;;;;;4863071;29;20076;-67
2022/07/28 13:54:01;;;;;;;;;;;;;;;;;;4888429;29;20080;-67
2022/07/28 13:56:29;;;;;;;2.35;0.77;;;;;;;;;;4878379;29;19950;-67
2022/07/28 13:58:56;;;;;;;1.53;0.70;;;;;;;;;;4869340;29;20100;-67
2022/07/28 14:01:24;;;;;;;2.08;0.75;;;;;;;;;;4879485;29;20315;-67
2022/07/28 14:03:51;;;;;;;2.78;0.75;;;;;;;;;;4869621;29;20136;-67
2022/07/28 14:06:17;;;;;;;1.70;0.70;;;;;;;;;;4857805;29;20053;-66
2022/07/28 14:08:45;;;;;;;1.10;0.63;;;;;;;;;;4858398;29;20139;-67
2022/07/28 14:11:14;;;;;;;2.95;0.77;;;;;;;;;;4874153;29;20057;-68
2022/07/28 14:13:40;;;;;;;4.28;0.77;;;;;;;;;;4878808;29;20045;-68
2022/07/28 14:16:09;;;;;;;2.25;0.70;;;;;;;;;;4884442;29;20140;-68
2022/07/28 14:18:37;;;;;;;2.00;0.70;;;;;;;;;;4859826;29;20059;-68
2022/07/28 14:21:04;;;;;;;1.95;0.80;;;;;;;;;;4866574;29;20127;-69
2022/07/28 14:23:44;;;;;;;2.40;0.70;;;;;;;;;;4879147;29;20056;-67
2022/07/28 14:26:21;;;;;;;2.20;0.90;;;;;;;;;;4874279;29;20067;-67
2022/07/28 14:28:47;;;;;;;1.05;0.80;;;;;;;;;;4879234;29;20052;-67
2022/07/28 14:31:14;;;;;;;1.52;0.50;;;;;;;;;;4873791;29;20063;-68
2022/07/28 14:33:41;;;;;;;2.55;0.80;;;;;;;;;;4878860;29;20056;-66
2022/07/28 14:36:08;;;;;;;5.03;0.88;;;;;;;;;;4889650;29;20085;-66
2022/07/28 14:38:34;;;;;;;1.20;0.50;;;;;;;;;;4878467;29;20045;-67
2022/07/28 14:41:01;;;;;;;1.98;0.70;;;;;;;;;;4871092;29;20056;-67
2022/07/28 14:43:29;;;;;;;1.35;0.65;;;;;;;;;;4868573;29;20079;-67
2022/07/28 14:45:56;;;;;;;4.30;0.82;;;;;;;;;;4899633;29;20160;-68
2022/07/28 14:48:22;;;;;;;3.58;0.90;;;;;;;;;;4876537;29;20061;-68
2022/07/28 14:50:51;;;;;;;2.05;0.70;;;;;;;;;;4874627;29;20094;-67
2022/07/28 14:53:20;;;;;;;9.60;0.90;;;;;;;;;;4870706;29;20049;-68
2022/07/28 14:55:49;;;;;;;1.83;0.70;;;;;;;;;;4873653;29;20053;-66
2022/07/28 14:58:15;;;;;;;;;;;;;;;;;;4887058;29;20153;-67
2022/07/28 15:00:43;;;;;;;1.17;0.68;;;;;;;;;;4873087;29;20009;-68